Terminal Aerodrome Forecast
Issued by NWS

Current Version | Previous Version | Text Only | Print | Product List | Glossary On
Versions: 1 2 3 4 5 6 7 8 9 10 11 12 13 14 15 16 17 18 19 20 21 22
000
FTUS43 KICT 251720
TAFRSL
TAF
KRSL 251720Z 2518/2618 07007KT P6SM SCT020 SCT120
     FM260000 11007KT P6SM SKC
     FM260900 12005KT 6SM BR FEW250
     FM261500 13008KT P6SM FEW250=

USA.gov is the U.S. government's official web portal to all federal, state and local government web resources and services.